sensor_id;sensor_type;location;lat;lon;timestamp;P1;durP1;ratioP1;P2;durP2;ratioP2
12271;SDS011;6198;51.446;6.698;2023-01-26T00:02:09;126.10;;;61.17;;
12271;SDS011;6198;51.446;6.698;2023-01-26T00:04:35;125.80;;;58.37;;
12271;SDS011;6198;51.446;6.698;2023-01-26T00:07:01;131.37;;;61.73;;
12271;SDS011;6198;51.446;6.698;2023-01-26T00:09:27;134.27;;;62.20;;
12271;SDS011;6198;51.446;6.698;2023-01-26T00:11:53;128.03;;;60.77;;
12271;SDS011;6198;51.446;6.698;2023-01-26T00:14:19;126.53;;;60.40;;
12271;SDS011;6198;51.446;6.698;2023-01-26T00:16:45;132.03;;;61.73;;
12271;SDS011;6198;51.446;6.698;2023-01-26T00:19:11;136.60;;;65.33;;
12271;SDS011;6198;51.446;6.698;2023-01-26T00:21:36;135.50;;;62.40;;
12271;SDS011;6198;51.446;6.698;2023-01-26T00:24:02;136.07;;;63.87;;
12271;SDS011;6198;51.446;6.698;2023-01-26T00:26:29;140.67;;;66.73;;
12271;SDS011;6198;51.446;6.698;2023-01-26T00:28:55;143.23;;;64.87;;
12271;SDS011;6198;51.446;6.698;2023-01-26T00:31:25;139.90;;;66.00;;
12271;SDS011;6198;51.446;6.698;2023-01-26T00:33:52;139.50;;;63.70;;
12271;SDS011;6198;51.446;6.698;2023-01-26T00:36:18;136.17;;;65.17;;
12271;SDS011;6198;51.446;6.698;2023-01-26T00:38:44;146.53;;;67.13;;
12271;SDS011;6198;51.446;6.698;2023-01-26T00:41:10;144.63;;;65.43;;
12271;SDS011;6198;51.446;6.698;2023-01-26T00:43:56;146.57;;;64.53;;
12271;SDS011;6198;51.446;6.698;2023-01-26T00:46:22;147.63;;;63.90;;
12271;SDS011;6198;51.446;6.698;2023-01-26T00:48:48;138.93;;;62.30;;
12271;SDS011;6198;51.446;6.698;2023-01-26T00:51:14;137.13;;;63.53;;
12271;SDS011;6198;51.446;6.698;2023-01-26T00:53:40;141.40;;;61.57;;
12271;SDS011;6198;51.446;6.698;2023-01-26T00:56:06;138.03;;;58.47;;
12271;SDS011;6198;51.446;6.698;2023-01-26T00:58:32;136.57;;;58.90;;
12271;SDS011;6198;51.446;6.698;2023-01-26T01:00:58;130.83;;;57.20;;
12271;SDS011;6198;51.446;6.698;2023-01-26T01:03:24;135.30;;;61.57;;
12271;SDS011;6198;51.446;6.698;2023-01-26T01:05:50;138.57;;;59.43;;
12271;SDS011;6198;51.446;6.698;2023-01-26T01:08:16;140.10;;;59.50;;
12271;SDS011;6198;51.446;6.698;2023-01-26T01:10:42;140.73;;;57.77;;
12271;SDS011;6198;51.446;6.698;2023-01-26T01:13:08;136.90;;;61.23;;
12271;SDS011;6198;51.446;6.698;2023-01-26T01:15:34;141.50;;;57.80;;
12271;SDS011;6198;51.446;6.698;2023-01-26T01:18:02;138.57;;;57.27;;
12271;SDS011;6198;51.446;6.698;2023-01-26T01:20:28;140.93;;;61.17;;
12271;SDS011;6198;51.446;6.698;2023-01-26T01:22:54;138.07;;;58.70;;
12271;SDS011;6198;51.446;6.698;2023-01-26T01:25:20;137.00;;;58.07;;
12271;SDS011;6198;51.446;6.698;2023-01-26T01:27:46;140.80;;;59.20;;
12271;SDS011;6198;51.446;6.698;2023-01-26T01:30:12;143.67;;;60.60;;
12271;SDS011;6198;51.446;6.698;2023-01-26T01:32:38;151.00;;;61.63;;
12271;SDS011;6198;51.446;6.698;2023-01-26T01:35:04;142.80;;;62.50;;
12271;SDS011;6198;51.446;6.698;2023-01-26T01:37:30;136.30;;;60.40;;
12271;SDS011;6198;51.446;6.698;2023-01-26T01:39:57;149.97;;;60.30;;
12271;SDS011;6198;51.446;6.698;2023-01-26T01:42:23;153.70;;;63.43;;
12271;SDS011;6198;51.446;6.698;2023-01-26T01:47:34;142.60;;;60.37;;
12271;SDS011;6198;51.446;6.698;2023-01-26T01:50:00;146.53;;;59.60;;
12271;SDS011;6198;51.446;6.698;2023-01-26T01:52:28;139.20;;;58.17;;
12271;SDS011;6198;51.446;6.698;2023-01-26T01:54:57;137.80;;;57.03;;
12271;SDS011;6198;51.446;6.698;2023-01-26T01:57:27;147.93;;;58.70;;
12271;SDS011;6198;51.446;6.698;2023-01-26T02:00:04;136.53;;;58.57;;
12271;SDS011;6198;51.446;6.698;2023-01-26T02:02:30;144.77;;;61.27;;
12271;SDS011;6198;51.446;6.698;2023-01-26T02:04:56;150.07;;;58.30;;
12271;SDS011;6198;51.446;6.698;2023-01-26T02:07:25;138.40;;;58.83;;
12271;SDS011;6198;51.446;6.698;2023-01-26T02:09:52;147.70;;;58.70;;
12271;SDS011;6198;51.446;6.698;2023-01-26T02:12:37;154.10;;;59.50;;
12271;SDS011;6198;51.446;6.698;2023-01-26T02:15:04;147.03;;;57.10;;
12271;SDS011;6198;51.446;6.698;2023-01-26T02:17:30;143.67;;;59.33;;
12271;SDS011;6198;51.446;6.698;2023-01-26T02:19:59;155.07;;;60.53;;
12271;SDS011;6198;51.446;6.698;2023-01-26T02:24:54;152.10;;;59.63;;
12271;SDS011;6198;51.446;6.698;2023-01-26T02:27:22;153.87;;;62.03;;
12271;SDS011;6198;51.446;6.698;2023-01-26T02:29:48;156.03;;;60.27;;
12271;SDS011;6198;51.446;6.698;2023-01-26T02:32:14;161.87;;;64.13;;
12271;SDS011;6198;51.446;6.698;2023-01-26T02:34:40;160.17;;;64.67;;
12271;SDS011;6198;51.446;6.698;2023-01-26T02:37:11;145.53;;;60.93;;
12271;SDS011;6198;51.446;6.698;2023-01-26T02:39:46;157.57;;;59.23;;
12271;SDS011;6198;51.446;6.698;2023-01-26T02:42:14;150.97;;;61.87;;
12271;SDS011;6198;51.446;6.698;2023-01-26T02:44:58;152.00;;;62.13;;
12271;SDS011;6198;51.446;6.698;2023-01-26T02:47:24;142.87;;;59.33;;
12271;SDS011;6198;51.446;6.698;2023-01-26T02:49:50;148.10;;;61.53;;
12271;SDS011;6198;51.446;6.698;2023-01-26T02:52:18;142.70;;;60.10;;
12271;SDS011;6198;51.446;6.698;2023-01-26T02:54:44;137.70;;;57.80;;
12271;SDS011;6198;51.446;6.698;2023-01-26T02:57:29;135.20;;;58.30;;
12271;SDS011;6198;51.446;6.698;2023-01-26T02:59:55;138.30;;;57.50;;
12271;SDS011;6198;51.446;6.698;2023-01-26T03:02:21;142.47;;;59.83;;
12271;SDS011;6198;51.446;6.698;2023-01-26T03:04:47;143.30;;;59.87;;
12271;SDS011;6198;51.446;6.698;2023-01-26T03:07:13;148.63;;;61.70;;
12271;SDS011;6198;51.446;6.698;2023-01-26T03:09:39;147.60;;;58.43;;
12271;SDS011;6198;51.446;6.698;2023-01-26T03:12:05;149.67;;;61.40;;
12271;SDS011;6198;51.446;6.698;2023-01-26T03:14:31;150.70;;;60.30;;
12271;SDS011;6198;51.446;6.698;2023-01-26T03:16:57;148.60;;;60.40;;
12271;SDS011;6198;51.446;6.698;2023-01-26T03:19:22;144.77;;;60.03;;
12271;SDS011;6198;51.446;6.698;2023-01-26T03:22:08;149.33;;;60.90;;
12271;SDS011;6198;51.446;6.698;2023-01-26T03:24:53;152.87;;;61.60;;
12271;SDS011;6198;51.446;6.698;2023-01-26T03:27:47;151.30;;;62.20;;
12271;SDS011;6198;51.446;6.698;2023-01-26T03:30:14;152.13;;;61.67;;
12271;SDS011;6198;51.446;6.698;2023-01-26T03:32:41;150.77;;;61.70;;
12271;SDS011;6198;51.446;6.698;2023-01-26T03:35:07;159.07;;;64.03;;
12271;SDS011;6198;51.446;6.698;2023-01-26T03:37:40;161.23;;;64.93;;
12271;SDS011;6198;51.446;6.698;2023-01-26T03:40:07;166.67;;;65.87;;
12271;SDS011;6198;51.446;6.698;2023-01-26T03:42:52;161.33;;;64.10;;
12271;SDS011;6198;51.446;6.698;2023-01-26T03:45:37;158.93;;;63.43;;
12271;SDS011;6198;51.446;6.698;2023-01-26T03:48:21;159.43;;;66.07;;
12271;SDS011;6198;51.446;6.698;2023-01-26T03:51:06;165.37;;;65.73;;
12271;SDS011;6198;51.446;6.698;2023-01-26T03:53:50;149.23;;;62.57;;
12271;SDS011;6198;51.446;6.698;2023-01-26T03:56:35;152.53;;;61.87;;
12271;SDS011;6198;51.446;6.698;2023-01-26T03:59:02;144.27;;;60.27;;
12271;SDS011;6198;51.446;6.698;2023-01-26T04:01:43;145.93;;;60.27;;
12271;SDS011;6198;51.446;6.698;2023-01-26T04:04:28;151.10;;;60.53;;
12271;SDS011;6198;51.446;6.698;2023-01-26T04:07:13;151.63;;;62.70;;
12271;SDS011;6198;51.446;6.698;2023-01-26T04:09:57;151.03;;;60.77;;
12271;SDS011;6198;51.446;6.698;2023-01-26T04:12:23;160.53;;;62.60;;
12271;SDS011;6198;51.446;6.698;2023-01-26T04:14:49;159.80;;;61.67;;
12271;SDS011;6198;51.446;6.698;2023-01-26T04:17:33;156.57;;;63.63;;
12271;SDS011;6198;51.446;6.698;2023-01-26T04:20:18;153.93;;;60.27;;
12271;SDS011;6198;51.446;6.698;2023-01-26T04:23:02;147.97;;;60.23;;
12271;SDS011;6198;51.446;6.698;2023-01-26T04:25:28;149.37;;;57.63;;
12271;SDS011;6198;51.446;6.698;2023-01-26T04:27:54;145.67;;;59.37;;
12271;SDS011;6198;51.446;6.698;2023-01-26T04:30:20;160.60;;;60.40;;
12271;SDS011;6198;51.446;6.698;2023-01-26T04:32:46;147.03;;;55.90;;
12271;SDS011;6198;51.446;6.698;2023-01-26T04:35:12;141.53;;;55.70;;
12271;SDS011;6198;51.446;6.698;2023-01-26T04:37:38;141.37;;;54.23;;
12271;SDS011;6198;51.446;6.698;2023-01-26T04:40:04;131.23;;;50.80;;
12271;SDS011;6198;51.446;6.698;2023-01-26T04:42:31;145.00;;;54.20;;
12271;SDS011;6198;51.446;6.698;2023-01-26T04:44:57;137.03;;;53.83;;
12271;SDS011;6198;51.446;6.698;2023-01-26T04:47:23;136.97;;;53.37;;
12271;SDS011;6198;51.446;6.698;2023-01-26T04:49:49;135.33;;;52.53;;
12271;SDS011;6198;51.446;6.698;2023-01-26T04:52:15;138.67;;;52.93;;
12271;SDS011;6198;51.446;6.698;2023-01-26T04:54:41;128.00;;;52.87;;
12271;SDS011;6198;51.446;6.698;2023-01-26T04:57:07;138.90;;;51.93;;
12271;SDS011;6198;51.446;6.698;2023-01-26T04:59:33;143.57;;;51.57;;
12271;SDS011;6198;51.446;6.698;2023-01-26T05:01:59;136.10;;;52.43;;
12271;SDS011;6198;51.446;6.698;2023-01-26T05:04:25;132.33;;;50.03;;
12271;SDS011;6198;51.446;6.698;2023-01-26T05:06:51;139.67;;;52.43;;
12271;SDS011;6198;51.446;6.698;2023-01-26T05:09:17;135.77;;;51.67;;
12271;SDS011;6198;51.446;6.698;2023-01-26T05:11:43;142.07;;;52.97;;
12271;SDS011;6198;51.446;6.698;2023-01-26T05:14:09;134.90;;;53.03;;
12271;SDS011;6198;51.446;6.698;2023-01-26T05:16:34;142.80;;;54.20;;
12271;SDS011;6198;51.446;6.698;2023-01-26T05:19:00;132.37;;;52.27;;
12271;SDS011;6198;51.446;6.698;2023-01-26T05:21:26;137.77;;;52.73;;
12271;SDS011;6198;51.446;6.698;2023-01-26T05:23:53;131.97;;;51.77;;
12271;SDS011;6198;51.446;6.698;2023-01-26T05:26:19;125.57;;;50.83;;
12271;SDS011;6198;51.446;6.698;2023-01-26T05:28:45;127.43;;;52.00;;
12271;SDS011;6198;51.446;6.698;2023-01-26T05:31:11;131.33;;;51.30;;
12271;SDS011;6198;51.446;6.698;2023-01-26T05:33:37;128.53;;;50.40;;
12271;SDS011;6198;51.446;6.698;2023-01-26T05:36:04;138.73;;;52.40;;
12271;SDS011;6198;51.446;6.698;2023-01-26T05:38:30;139.17;;;51.20;;
12271;SDS011;6198;51.446;6.698;2023-01-26T05:40:56;123.73;;;48.00;;
12271;SDS011;6198;51.446;6.698;2023-01-26T05:43:22;132.93;;;51.10;;
12271;SDS011;6198;51.446;6.698;2023-01-26T05:45:47;121.77;;;48.47;;
12271;SDS011;6198;51.446;6.698;2023-01-26T05:48:13;118.10;;;47.73;;
12271;SDS011;6198;51.446;6.698;2023-01-26T05:50:39;116.00;;;47.40;;
12271;SDS011;6198;51.446;6.698;2023-01-26T05:53:05;112.40;;;44.27;;
12271;SDS011;6198;51.446;6.698;2023-01-26T05:55:31;114.33;;;46.73;;
12271;SDS011;6198;51.446;6.698;2023-01-26T05:57:57;112.13;;;46.47;;
12271;SDS011;6198;51.446;6.698;2023-01-26T06:00:23;115.40;;;46.77;;
12271;SDS011;6198;51.446;6.698;2023-01-26T06:02:49;113.87;;;45.90;;
12271;SDS011;6198;51.446;6.698;2023-01-26T06:05:15;105.30;;;42.70;;
12271;SDS011;6198;51.446;6.698;2023-01-26T06:07:41;106.47;;;44.63;;
12271;SDS011;6198;51.446;6.698;2023-01-26T06:10:07;109.10;;;44.57;;
12271;SDS011;6198;51.446;6.698;2023-01-26T06:12:33;109.87;;;45.77;;
12271;SDS011;6198;51.446;6.698;2023-01-26T06:15:02;107.67;;;43.37;;
12271;SDS011;6198;51.446;6.698;2023-01-26T06:17:28;99.73;;;41.63;;
12271;SDS011;6198;51.446;6.698;2023-01-26T06:19:54;98.33;;;44.27;;
12271;SDS011;6198;51.446;6.698;2023-01-26T06:22:20;109.70;;;43.53;;
12271;SDS011;6198;51.446;6.698;2023-01-26T06:24:46;118.03;;;44.33;;
12271;SDS011;6198;51.446;6.698;2023-01-26T06:27:13;104.13;;;42.77;;
12271;SDS011;6198;51.446;6.698;2023-01-26T06:29:39;105.90;;;45.03;;
12271;SDS011;6198;51.446;6.698;2023-01-26T06:32:06;104.90;;;44.17;;
12271;SDS011;6198;51.446;6.698;2023-01-26T06:34:32;104.23;;;44.07;;
12271;SDS011;6198;51.446;6.698;2023-01-26T06:36:58;110.20;;;44.50;;
12271;SDS011;6198;51.446;6.698;2023-01-26T06:39:24;93.77;;;40.07;;
12271;SDS011;6198;51.446;6.698;2023-01-26T06:41:50;93.70;;;41.87;;
12271;SDS011;6198;51.446;6.698;2023-01-26T06:44:16;93.33;;;39.87;;
12271;SDS011;6198;51.446;6.698;2023-01-26T06:46:42;97.40;;;41.93;;
12271;SDS011;6198;51.446;6.698;2023-01-26T06:49:08;98.67;;;40.93;;
12271;SDS011;6198;51.446;6.698;2023-01-26T06:54:03;94.70;;;41.93;;
12271;SDS011;6198;51.446;6.698;2023-01-26T06:56:29;94.03;;;41.07;;
12271;SDS011;6198;51.446;6.698;2023-01-26T06:58:55;98.20;;;41.97;;
12271;SDS011;6198;51.446;6.698;2023-01-26T07:01:21;99.07;;;42.57;;
12271;SDS011;6198;51.446;6.698;2023-01-26T07:03:48;102.27;;;44.80;;
12271;SDS011;6198;51.446;6.698;2023-01-26T07:06:14;107.23;;;44.60;;
12271;SDS011;6198;51.446;6.698;2023-01-26T07:08:40;102.33;;;41.47;;
12271;SDS011;6198;51.446;6.698;2023-01-26T07:11:07;119.83;;;51.03;;
12271;SDS011;6198;51.446;6.698;2023-01-26T07:13:33;106.53;;;44.23;;
12271;SDS011;6198;51.446;6.698;2023-01-26T07:16:02;98.27;;;42.93;;
12271;SDS011;6198;51.446;6.698;2023-01-26T07:18:28;102.10;;;44.13;;
12271;SDS011;6198;51.446;6.698;2023-01-26T07:20:59;108.50;;;43.13;;
12271;SDS011;6198;51.446;6.698;2023-01-26T07:23:25;116.13;;;50.67;;
12271;SDS011;6198;51.446;6.698;2023-01-26T07:25:51;100.60;;;43.97;;
12271;SDS011;6198;51.446;6.698;2023-01-26T07:28:17;108.47;;;43.60;;
12271;SDS011;6198;51.446;6.698;2023-01-26T07:30:43;102.20;;;43.73;;
12271;SDS011;6198;51.446;6.698;2023-01-26T07:33:09;108.10;;;44.63;;
12271;SDS011;6198;51.446;6.698;2023-01-26T07:35:35;116.33;;;47.33;;
12271;SDS011;6198;51.446;6.698;2023-01-26T07:38:04;121.37;;;47.23;;
12271;SDS011;6198;51.446;6.698;2023-01-26T07:40:30;108.80;;;44.53;;
12271;SDS011;6198;51.446;6.698;2023-01-26T07:42:56;105.73;;;45.10;;
12271;SDS011;6198;51.446;6.698;2023-01-26T07:45:23;136.03;;;51.70;;
12271;SDS011;6198;51.446;6.698;2023-01-26T07:47:49;129.90;;;50.57;;
12271;SDS011;6198;51.446;6.698;2023-01-26T07:50:17;122.30;;;50.67;;
12271;SDS011;6198;51.446;6.698;2023-01-26T07:52:45;117.20;;;47.10;;
12271;SDS011;6198;51.446;6.698;2023-01-26T07:55:11;141.43;;;58.43;;
12271;SDS011;6198;51.446;6.698;2023-01-26T07:57:37;125.57;;;53.03;;
12271;SDS011;6198;51.446;6.698;2023-01-26T08:00:03;121.67;;;50.80;;
12271;SDS011;6198;51.446;6.698;2023-01-26T08:02:29;127.53;;;57.57;;
12271;SDS011;6198;51.446;6.698;2023-01-26T08:04:55;114.17;;;47.20;;
12271;SDS011;6198;51.446;6.698;2023-01-26T08:07:21;118.43;;;45.60;;
12271;SDS011;6198;51.446;6.698;2023-01-26T08:09:47;119.63;;;48.33;;
12271;SDS011;6198;51.446;6.698;2023-01-26T08:12:13;123.20;;;49.77;;
12271;SDS011;6198;51.446;6.698;2023-01-26T08:14:39;120.17;;;48.07;;
12271;SDS011;6198;51.446;6.698;2023-01-26T08:17:06;113.37;;;46.57;;
12271;SDS011;6198;51.446;6.698;2023-01-26T08:19:32;107.33;;;44.03;;
12271;SDS011;6198;51.446;6.698;2023-01-26T08:21:58;114.77;;;45.97;;
12271;SDS011;6198;51.446;6.698;2023-01-26T08:24:24;119.60;;;46.37;;
12271;SDS011;6198;51.446;6.698;2023-01-26T08:26:51;110.17;;;44.93;;
12271;SDS011;6198;51.446;6.698;2023-01-26T08:29:17;109.17;;;45.10;;
12271;SDS011;6198;51.446;6.698;2023-01-26T08:31:44;108.97;;;45.30;;
12271;SDS011;6198;51.446;6.698;2023-01-26T08:34:10;106.60;;;44.00;;
12271;SDS011;6198;51.446;6.698;2023-01-26T08:36:37;105.03;;;43.80;;
12271;SDS011;6198;51.446;6.698;2023-01-26T08:39:03;104.30;;;43.73;;
12271;SDS011;6198;51.446;6.698;2023-01-26T08:41:29;103.83;;;42.77;;
12271;SDS011;6198;51.446;6.698;2023-01-26T08:43:56;94.87;;;41.67;;
12271;SDS011;6198;51.446;6.698;2023-01-26T08:46:23;92.50;;;40.17;;
12271;SDS011;6198;51.446;6.698;2023-01-26T08:48:49;88.47;;;39.87;;
12271;SDS011;6198;51.446;6.698;2023-01-26T08:51:15;85.23;;;37.47;;
12271;SDS011;6198;51.446;6.698;2023-01-26T08:53:41;90.67;;;37.87;;
12271;SDS011;6198;51.446;6.698;2023-01-26T08:56:08;98.77;;;40.20;;
12271;SDS011;6198;51.446;6.698;2023-01-26T08:58:35;92.00;;;40.27;;
12271;SDS011;6198;51.446;6.698;2023-01-26T09:01:04;98.07;;;41.00;;
12271;SDS011;6198;51.446;6.698;2023-01-26T09:03:30;93.53;;;39.53;;
12271;SDS011;6198;51.446;6.698;2023-01-26T09:05:59;90.03;;;38.70;;
12271;SDS011;6198;51.446;6.698;2023-01-26T09:08:26;94.70;;;38.10;;
12271;SDS011;6198;51.446;6.698;2023-01-26T09:10:52;90.33;;;38.47;;
12271;SDS011;6198;51.446;6.698;2023-01-26T09:13:18;101.33;;;43.90;;
12271;SDS011;6198;51.446;6.698;2023-01-26T09:15:44;97.00;;;40.23;;
12271;SDS011;6198;51.446;6.698;2023-01-26T09:18:10;81.87;;;36.37;;
12271;SDS011;6198;51.446;6.698;2023-01-26T09:20:36;80.00;;;35.10;;
12271;SDS011;6198;51.446;6.698;2023-01-26T09:23:03;79.40;;;35.17;;
12271;SDS011;6198;51.446;6.698;2023-01-26T09:25:29;85.00;;;35.93;;
12271;SDS011;6198;51.446;6.698;2023-01-26T09:27:55;86.73;;;37.87;;
12271;SDS011;6198;51.446;6.698;2023-01-26T09:30:21;82.70;;;36.73;;
12271;SDS011;6198;51.446;6.698;2023-01-26T09:32:49;77.57;;;34.57;;
12271;SDS011;6198;51.446;6.698;2023-01-26T09:35:15;71.80;;;32.47;;
12271;SDS011;6198;51.446;6.698;2023-01-26T09:37:44;76.10;;;33.23;;
12271;SDS011;6198;51.446;6.698;2023-01-26T09:40:13;69.83;;;30.83;;
12271;SDS011;6198;51.446;6.698;2023-01-26T09:50:23;69.30;;;31.30;;
12271;SDS011;6198;51.446;6.698;2023-01-26T09:55:20;69.63;;;31.57;;
12271;SDS011;6198;51.446;6.698;2023-01-26T09:57:50;63.87;;;30.10;;
12271;SDS011;6198;51.446;6.698;2023-01-26T10:00:19;61.53;;;28.07;;
12271;SDS011;6198;51.446;6.698;2023-01-26T10:02:54;63.13;;;29.07;;
12271;SDS011;6198;51.446;6.698;2023-01-26T10:07:51;55.63;;;26.00;;
12271;SDS011;6198;51.446;6.698;2023-01-26T10:10:27;59.23;;;26.27;;
12271;SDS011;6198;51.446;6.698;2023-01-26T10:12:54;58.60;;;27.20;;
12271;SDS011;6198;51.446;6.698;2023-01-26T10:15:26;63.07;;;32.97;;
12271;SDS011;6198;51.446;6.698;2023-01-26T10:17:54;44.67;;;22.40;;
12271;SDS011;6198;51.446;6.698;2023-01-26T10:20:27;67.00;;;33.07;;
12271;SDS011;6198;51.446;6.698;2023-01-26T10:23:15;54.57;;;26.40;;
12271;SDS011;6198;51.446;6.698;2023-01-26T10:25:42;49.27;;;23.70;;
12271;SDS011;6198;51.446;6.698;2023-01-26T10:28:29;46.43;;;23.07;;
12271;SDS011;6198;51.446;6.698;2023-01-26T10:30:55;47.27;;;23.27;;
12271;SDS011;6198;51.446;6.698;2023-01-26T10:33:25;40.40;;;21.33;;
12271;SDS011;6198;51.446;6.698;2023-01-26T10:35:52;39.77;;;20.20;;
12271;SDS011;6198;51.446;6.698;2023-01-26T10:38:25;39.93;;;19.47;;
12271;SDS011;6198;51.446;6.698;2023-01-26T10:40:51;41.90;;;22.03;;
12271;SDS011;6198;51.446;6.698;2023-01-26T10:43:17;37.90;;;20.80;;
12271;SDS011;6198;51.446;6.698;2023-01-26T10:45:44;43.63;;;22.37;;
12271;SDS011;6198;51.446;6.698;2023-01-26T10:48:21;43.80;;;21.33;;
12271;SDS011;6198;51.446;6.698;2023-01-26T10:50:51;44.47;;;21.27;;
12271;SDS011;6198;51.446;6.698;2023-01-26T10:53:27;43.47;;;23.20;;
12271;SDS011;6198;51.446;6.698;2023-01-26T11:01:00;38.50;;;19.87;;
12271;SDS011;6198;51.446;6.698;2023-01-26T11:03:26;36.83;;;19.43;;
12271;SDS011;6198;51.446;6.698;2023-01-26T11:06:04;35.73;;;19.03;;
12271;SDS011;6198;51.446;6.698;2023-01-26T11:08:34;37.93;;;19.23;;
12271;SDS011;6198;51.446;6.698;2023-01-26T11:11:00;32.70;;;17.67;;
12271;SDS011;6198;51.446;6.698;2023-01-26T11:13:27;28.93;;;16.27;;
12271;SDS011;6198;51.446;6.698;2023-01-26T11:24:00;39.80;;;17.67;;
12271;SDS011;6198;51.446;6.698;2023-01-26T11:26:36;34.07;;;17.20;;
12271;SDS011;6198;51.446;6.698;2023-01-26T11:29:08;33.77;;;17.43;;
12271;SDS011;6198;51.446;6.698;2023-01-26T11:31:47;32.70;;;17.77;;
12271;SDS011;6198;51.446;6.698;2023-01-26T11:39:33;34.63;;;17.60;;
12271;SDS011;6198;51.446;6.698;2023-01-26T11:42:05;38.07;;;20.00;;
12271;SDS011;6198;51.446;6.698;2023-01-26T11:44:56;36.40;;;17.30;;
12271;SDS011;6198;51.446;6.698;2023-01-26T11:55:30;39.60;;;18.60;;
12271;SDS011;6198;51.446;6.698;2023-01-26T12:00:36;40.63;;;19.70;;
12271;SDS011;6198;51.446;6.698;2023-01-26T12:03:04;40.93;;;21.00;;
12271;SDS011;6198;51.446;6.698;2023-01-26T12:05:39;38.53;;;20.70;;
12271;SDS011;6198;51.446;6.698;2023-01-26T12:08:10;38.10;;;19.67;;
12271;SDS011;6198;51.446;6.698;2023-01-26T12:10:47;34.80;;;19.00;;
12271;SDS011;6198;51.446;6.698;2023-01-26T12:13:30;33.17;;;17.93;;
12271;SDS011;6198;51.446;6.698;2023-01-26T12:16:01;41.37;;;19.63;;
12271;SDS011;6198;51.446;6.698;2023-01-26T12:18:38;41.17;;;20.90;;
12271;SDS011;6198;51.446;6.698;2023-01-26T12:21:07;40.03;;;20.30;;
12271;SDS011;6198;51.446;6.698;2023-01-26T12:26:13;44.07;;;21.43;;
12271;SDS011;6198;51.446;6.698;2023-01-26T12:28:51;42.57;;;22.17;;
12271;SDS011;6198;51.446;6.698;2023-01-26T12:31:23;37.53;;;20.33;;
12271;SDS011;6198;51.446;6.698;2023-01-26T12:33:52;38.90;;;18.63;;
12271;SDS011;6198;51.446;6.698;2023-01-26T12:39:00;33.33;;;17.50;;
12271;SDS011;6198;51.446;6.698;2023-01-26T12:41:56;41.40;;;19.30;;
12271;SDS011;6198;51.446;6.698;2023-01-26T12:46:46;41.60;;;20.73;;
12271;SDS011;6198;51.446;6.698;2023-01-26T12:49:16;58.83;;;31.43;;
12271;SDS011;6198;51.446;6.698;2023-01-26T12:51:46;47.37;;;22.30;;
12271;SDS011;6198;51.446;6.698;2023-01-26T12:54:15;53.53;;;26.40;;
12271;SDS011;6198;51.446;6.698;2023-01-26T12:56:45;47.73;;;24.83;;
12271;SDS011;6198;51.446;6.698;2023-01-26T12:59:19;50.60;;;26.57;;
12271;SDS011;6198;51.446;6.698;2023-01-26T13:01:46;47.80;;;24.83;;
12271;SDS011;6198;51.446;6.698;2023-01-26T13:04:12;51.07;;;24.90;;
12271;SDS011;6198;51.446;6.698;2023-01-26T13:06:39;50.27;;;27.90;;
12271;SDS011;6198;51.446;6.698;2023-01-26T13:11:47;67.03;;;26.83;;
12271;SDS011;6198;51.446;6.698;2023-01-26T13:16:49;69.90;;;25.33;;
12271;SDS011;6198;51.446;6.698;2023-01-26T13:22:00;64.33;;;26.03;;
12271;SDS011;6198;51.446;6.698;2023-01-26T13:26:52;68.07;;;27.33;;
12271;SDS011;6198;51.446;6.698;2023-01-26T13:29:25;66.80;;;25.57;;
12271;SDS011;6198;51.446;6.698;2023-01-26T13:31:55;73.80;;;27.27;;
12271;SDS011;6198;51.446;6.698;2023-01-26T13:37:04;66.27;;;25.03;;
12271;SDS011;6198;51.446;6.698;2023-01-26T13:39:34;78.47;;;26.37;;
12271;SDS011;6198;51.446;6.698;2023-01-26T13:42:01;80.23;;;27.27;;
12271;SDS011;6198;51.446;6.698;2023-01-26T13:44:32;71.73;;;27.30;;
12271;SDS011;6198;51.446;6.698;2023-01-26T13:47:04;70.90;;;26.63;;
12271;SDS011;6198;51.446;6.698;2023-01-26T13:49:38;80.00;;;29.13;;
12271;SDS011;6198;51.446;6.698;2023-01-26T13:52:21;96.80;;;31.37;;
12271;SDS011;6198;51.446;6.698;2023-01-26T13:54:48;83.40;;;29.77;;
12271;SDS011;6198;51.446;6.698;2023-01-26T13:57:21;90.83;;;29.53;;
12271;SDS011;6198;51.446;6.698;2023-01-26T13:59:48;98.67;;;34.93;;
12271;SDS011;6198;51.446;6.698;2023-01-26T14:02:22;85.30;;;30.93;;
12271;SDS011;6198;51.446;6.698;2023-01-26T14:04:52;96.07;;;32.37;;
12271;SDS011;6198;51.446;6.698;2023-01-26T14:07:19;84.87;;;30.90;;
12271;SDS011;6198;51.446;6.698;2023-01-26T14:09:48;88.43;;;30.57;;
12271;SDS011;6198;51.446;6.698;2023-01-26T14:12:19;86.77;;;31.07;;
12271;SDS011;6198;51.446;6.698;2023-01-26T14:14:47;86.83;;;29.40;;
12271;SDS011;6198;51.446;6.698;2023-01-26T14:17:28;92.27;;;32.40;;
12271;SDS011;6198;51.446;6.698;2023-01-26T14:19:55;107.03;;;40.97;;
12271;SDS011;6198;51.446;6.698;2023-01-26T14:22:21;101.03;;;32.27;;
12271;SDS011;6198;51.446;6.698;2023-01-26T14:24:48;88.87;;;32.60;;
12271;SDS011;6198;51.446;6.698;2023-01-26T14:27:21;91.33;;;31.20;;
12271;SDS011;6198;51.446;6.698;2023-01-26T14:29:49;86.83;;;27.87;;
12271;SDS011;6198;51.446;6.698;2023-01-26T14:32:15;84.97;;;28.37;;
12271;SDS011;6198;51.446;6.698;2023-01-26T14:34:51;77.57;;;27.13;;
12271;SDS011;6198;51.446;6.698;2023-01-26T14:37:18;93.90;;;28.67;;
12271;SDS011;6198;51.446;6.698;2023-01-26T14:39:44;85.13;;;27.73;;
12271;SDS011;6198;51.446;6.698;2023-01-26T14:42:15;82.20;;;27.67;;
12271;SDS011;6198;51.446;6.698;2023-01-26T14:44:42;86.30;;;28.67;;
12271;SDS011;6198;51.446;6.698;2023-01-26T14:47:11;97.03;;;26.57;;
12271;SDS011;6198;51.446;6.698;2023-01-26T14:49:52;84.67;;;28.40;;
12271;SDS011;6198;51.446;6.698;2023-01-26T14:52:24;84.50;;;27.73;;
12271;SDS011;6198;51.446;6.698;2023-01-26T14:54:52;81.57;;;30.73;;
12271;SDS011;6198;51.446;6.698;2023-01-26T14:57:19;89.97;;;30.50;;
12271;SDS011;6198;51.446;6.698;2023-01-26T14:59:47;84.60;;;28.70;;
12271;SDS011;6198;51.446;6.698;2023-01-26T15:04:48;91.27;;;28.07;;
12271;SDS011;6198;51.446;6.698;2023-01-26T15:10:00;86.63;;;29.60;;
12271;SDS011;6198;51.446;6.698;2023-01-26T15:12:26;76.53;;;25.43;;
12271;SDS011;6198;51.446;6.698;2023-01-26T15:14:58;86.70;;;28.47;;
12271;SDS011;6198;51.446;6.698;2023-01-26T15:17:28;75.47;;;26.17;;
12271;SDS011;6198;51.446;6.698;2023-01-26T15:19:55;71.53;;;23.40;;
12271;SDS011;6198;51.446;6.698;2023-01-26T15:22:22;68.40;;;23.63;;
12271;SDS011;6198;51.446;6.698;2023-01-26T15:24:58;70.93;;;23.33;;
12271;SDS011;6198;51.446;6.698;2023-01-26T15:27:29;65.90;;;22.23;;
12271;SDS011;6198;51.446;6.698;2023-01-26T15:29:58;66.87;;;22.33;;
12271;SDS011;6198;51.446;6.698;2023-01-26T15:32:29;64.47;;;21.53;;
12271;SDS011;6198;51.446;6.698;2023-01-26T15:35:06;55.07;;;23.53;;
12271;SDS011;6198;51.446;6.698;2023-01-26T15:37:33;70.53;;;25.50;;
12271;SDS011;6198;51.446;6.698;2023-01-26T15:40:00;67.27;;;25.83;;
12271;SDS011;6198;51.446;6.698;2023-01-26T15:42:26;61.57;;;24.43;;
12271;SDS011;6198;51.446;6.698;2023-01-26T15:44:54;63.90;;;24.70;;
12271;SDS011;6198;51.446;6.698;2023-01-26T15:47:20;61.63;;;23.90;;
12271;SDS011;6198;51.446;6.698;2023-01-26T15:49:46;59.93;;;21.83;;
12271;SDS011;6198;51.446;6.698;2023-01-26T15:52:16;65.30;;;21.93;;
12271;SDS011;6198;51.446;6.698;2023-01-26T15:54:42;57.10;;;21.10;;